MMMD Airport Information

Runway Information
Runway 10 Length 10499 ft width 151 ft
Elevation 38 ft Threshold 984 ft Heading 105
Runway 28 Length 10499 ft Width 151 ft
Elevation 38 ft Threshold 0 ft Heading 285
Runway 18 Length 7546 ft width 151 ft
Elevation 38 ft Threshold 0 ft Heading 181
Runway 36 Length 7546 ft Width 151 ft
Elevation 38 ft Threshold 0 ft Heading 1
Airport Frequencies
Type APP Name MERIDA APP Frequency 121.2 MHZ
Type ATIS Name ATIS Frequency 127.9 MHZ
Type INFO Name MERIDA INF Frequency 126.9 MHZ
Type TWR Name MERIDA TWR Frequency 118.3 MHZ
Airport Navaids
Type VOR-DME Name Merida Frequency 117700 KHZ
Type NDB Name Progreso Frequency 280 KHZ
Airport Weather Information & NOTAM
ADDS - METARS form results

(2117 UTC 16 August 2018)
 
METAR text: MMMD 162106Z 08010G23KT 3SM TSRA BKN020CB BKN200 24/22 A2998 RMK 8/903 TSB01 LWR VIS 1ST QUAD
Conditions at: MMMD (MERIDA INTL ARPT, MX) observed 2106 UTC 16 August 2018
Temperature: 24.0°C (75°F)
Dewpoint: 22.0°C (72°F) [RH = 89%]
Pressure (altimeter): 29.98 inches Hg (1015.3 mb)
Winds: from the E (80 degrees) at 12 MPH (10 knots; 5.2 m/s)
gusting to 26 MPH (23 knots; 12.0 m/s)
Visibility: 3 miles (5 km)
Ceiling: 2000 feet AGL
Clouds: broken clouds at 2000 feet AGL
broken clouds at 20000 feet AGL
Weather: TSRA  (rain associated with thunderstorm(s))

METAR text: MMMD 162105Z 08006G23KT 3SM TSRA BKN020CB BKN200 24/22 A2997 RMK 8/903 TSB02
Conditions at: MMMD (MERIDA INTL ARPT, MX) observed 2105 UTC 16 August 2018
Temperature: 24.0°C (75°F)
Dewpoint: 22.0°C (72°F) [RH = 89%]
Pressure (altimeter): 29.97 inches Hg (1015.0 mb)
Winds: from the E (80 degrees) at 7 MPH (6 knots; 3.1 m/s)
gusting to 26 MPH (23 knots; 12.0 m/s)
Visibility: 3 miles (5 km)
Ceiling: 2000 feet AGL
Clouds: broken clouds at 2000 feet AGL
broken clouds at 20000 feet AGL
Weather: TSRA  (rain associated with thunderstorm(s))

METAR text: MMMD 162050Z 05015KT 3SM RA BKN020CB BKN200 28/24 A2998 RMK SLP146 56025 900 8/303 RAB50 LWR VIS 1ST QUAD
Conditions at: MMMD (MERIDA INTL ARPT, MX) observed 2050 UTC 16 August 2018
Temperature: 28.0°C (82°F)
Dewpoint: 24.0°C (75°F) [RH = 79%]
Pressure (altimeter): 29.98 inches Hg (1015.3 mb)
[Sea-level pressure: 1014.6 mb]
Winds: from the NE (50 degrees) at 17 MPH (15 knots; 7.8 m/s)
Visibility: 3 miles (5 km)
Ceiling: 2000 feet AGL
Clouds: broken clouds at 2000 feet AGL
broken clouds at 20000 feet AGL
Weather: RA  (rain)